createdAt,value
2023-03-16T00:01:29.920Z,96.20
2023-03-16T00:03:36.608Z,96.30
2023-03-16T00:05:41.745Z,96.20
2023-03-16T00:07:47.251Z,96.20
2023-03-16T00:09:54.803Z,96.10
2023-03-16T00:12:00.469Z,96.10
2023-03-16T00:14:06.520Z,96.20
2023-03-16T00:16:16.932Z,96.10
2023-03-16T00:18:22.556Z,96.20
2023-03-16T00:20:28.473Z,96.10
2023-03-16T00:22:34.378Z,96.00
2023-03-16T00:24:39.339Z,95.90
2023-03-16T00:26:46.972Z,95.90
2023-03-16T00:28:54.358Z,95.90
2023-03-16T00:31:00.375Z,95.90
2023-03-16T00:33:05.766Z,95.90
2023-03-16T00:35:12.040Z,96.00
2023-03-16T00:37:19.044Z,96.00
2023-03-16T00:39:24.055Z,95.90
2023-03-16T00:41:29.310Z,96.10
2023-03-16T00:43:41.341Z,95.90
2023-03-16T00:45:47.206Z,95.80
2023-03-16T00:47:54.449Z,95.90
2023-03-16T00:50:01.054Z,96.00
2023-03-16T00:52:07.506Z,96.00
2023-03-16T00:54:12.838Z,96.00
2023-03-16T00:56:19.727Z,96.20
2023-03-16T00:58:24.877Z,96.10
2023-03-16T01:00:32.519Z,96.20
2023-03-16T01:02:37.464Z,96.20
2023-03-16T01:04:43.820Z,96.30
2023-03-16T01:06:49.317Z,96.20
2023-03-16T01:08:55.065Z,96.10
2023-03-16T01:11:04.526Z,96.30
2023-03-16T01:13:10.148Z,96.30
2023-03-16T01:15:16.707Z,96.30
2023-03-16T01:17:25.138Z,96.40
2023-03-16T01:19:30.346Z,96.20
2023-03-16T01:21:38.238Z,96.10
2023-03-16T01:23:44.472Z,96.10
2023-03-16T01:25:53.211Z,96.20
2023-03-16T01:27:58.492Z,96.20
2023-03-16T01:30:04.117Z,96.20
2023-03-16T01:32:10.090Z,96.20
2023-03-16T01:34:18.738Z,96.30
2023-03-16T01:36:25.174Z,96.10
2023-03-16T01:38:40.471Z,96.10
2023-03-16T01:40:45.584Z,96.00
2023-03-16T01:43:02.611Z,95.80
2023-03-16T01:46:14.832Z,95.90
2023-03-16T01:48:25.041Z,96.10
2023-03-16T01:50:33.870Z,96.00
2023-03-16T01:52:40.910Z,96.10
2023-03-16T01:54:51.217Z,96.00
2023-03-16T01:57:05.941Z,95.80
2023-03-16T01:59:19.336Z,95.80
2023-03-16T02:01:24.662Z,95.80
2023-03-16T02:03:30.674Z,95.90
2023-03-16T02:05:55.242Z,96.00
2023-03-16T02:08:04.369Z,95.80
2023-03-16T02:10:13.811Z,96.00
2023-03-16T02:12:20.609Z,96.00
2023-03-16T02:14:31.905Z,96.00
2023-03-16T02:16:37.039Z,95.90
2023-03-16T02:18:42.889Z,96.00
2023-03-16T02:20:58.943Z,96.00
2023-03-16T02:23:05.485Z,96.10
2023-03-16T02:25:11.614Z,96.10
2023-03-16T02:27:26.880Z,96.10
2023-03-16T02:30:08.051Z,96.20
2023-03-16T02:32:21.977Z,96.10
2023-03-16T02:34:29.092Z,96.10
2023-03-16T02:36:36.757Z,96.20
2023-03-16T02:38:41.853Z,96.20
2023-03-16T02:40:58.362Z,96.10
2023-03-16T02:43:07.853Z,96.10
2023-03-16T02:45:20.823Z,96.10
2023-03-16T02:47:36.028Z,96.10
2023-03-16T02:49:44.879Z,96.10
2023-03-16T02:51:51.484Z,96.00
2023-03-16T02:53:56.671Z,96.00
2023-03-16T02:56:03.169Z,96.00
2023-03-16T02:58:11.672Z,95.80
2023-03-16T03:00:22.025Z,95.70
2023-03-16T03:02:29.647Z,95.70
2023-03-16T03:04:34.568Z,95.80
2023-03-16T03:06:40.017Z,95.70
2023-03-16T03:08:45.309Z,95.70
2023-03-16T03:10:50.921Z,95.70
2023-03-16T03:12:55.863Z,96.00
2023-03-16T03:15:01.052Z,95.90
2023-03-16T03:17:15.107Z,95.90
2023-03-16T03:19:20.009Z,95.80
2023-03-16T03:21:26.598Z,95.90
2023-03-16T03:23:31.504Z,96.00
2023-03-16T03:25:36.869Z,95.80
2023-03-16T03:27:43.682Z,95.90
2023-03-16T03:29:52.422Z,95.90
2023-03-16T03:31:58.935Z,95.90
2023-03-16T03:34:06.920Z,95.80
2023-03-16T03:36:14.865Z,95.80
2023-03-16T03:38:21.011Z,95.70
2023-03-16T03:40:27.529Z,95.80
2023-03-16T03:42:39.724Z,95.70
2023-03-16T03:44:46.140Z,95.80
2023-03-16T03:46:52.547Z,95.70
2023-03-16T03:49:02.071Z,95.60
2023-03-16T03:51:13.099Z,95.60
2023-03-16T03:53:23.759Z,95.70
2023-03-16T03:55:53.636Z,95.60
2023-03-16T03:58:00.008Z,95.60
2023-03-16T04:00:07.919Z,95.50
2023-03-16T04:02:20.499Z,95.50
2023-03-16T04:04:28.913Z,95.30
2023-03-16T04:06:37.389Z,95.40
2023-03-16T04:08:42.382Z,95.30
2023-03-16T04:10:50.457Z,95.50
2023-03-16T04:12:59.499Z,95.50
2023-03-16T04:15:06.820Z,95.60
2023-03-16T04:17:20.987Z,95.60
2023-03-16T04:19:28.629Z,95.70
2023-03-16T04:21:37.087Z,95.80
2023-03-16T04:23:42.644Z,95.70
2023-03-16T04:25:48.284Z,95.70
2023-03-16T04:27:56.444Z,95.40
2023-03-16T04:30:06.011Z,95.50
2023-03-16T04:32:11.719Z,95.60
2023-03-16T04:34:18.536Z,95.70
2023-03-16T04:36:26.134Z,95.60
2023-03-16T04:38:36.586Z,95.40
2023-03-16T04:40:41.569Z,95.30
2023-03-16T04:42:54.916Z,95.50
2023-03-16T04:45:00.762Z,95.50
2023-03-16T04:47:05.906Z,95.60
2023-03-16T04:49:16.038Z,95.20
2023-03-16T04:51:24.072Z,95.30
2023-03-16T04:53:44.932Z,95.20
2023-03-16T04:56:07.484Z,95.20
2023-03-16T04:58:13.922Z,95.20
2023-03-16T05:00:19.928Z,95.00
2023-03-16T05:02:34.560Z,95.30
2023-03-16T05:04:40.274Z,95.40
2023-03-16T05:06:49.010Z,95.20
2023-03-16T05:08:58.368Z,95.40
2023-03-16T05:11:03.338Z,95.20
2023-03-16T05:13:13.581Z,95.40
2023-03-16T05:15:19.654Z,95.10
2023-03-16T05:17:34.765Z,95.00
2023-03-16T05:19:40.354Z,95.00
2023-03-16T05:21:45.751Z,95.00
2023-03-16T05:23:51.965Z,94.90
2023-03-16T05:26:02.846Z,95.00
2023-03-16T05:28:10.330Z,95.20
2023-03-16T05:30:26.865Z,95.20
2023-03-16T05:32:34.256Z,95.20
2023-03-16T05:34:39.197Z,95.30
2023-03-16T05:36:45.156Z,95.30
2023-03-16T05:38:53.655Z,95.20
2023-03-16T05:41:09.202Z,95.10
2023-03-16T05:43:47.568Z,95.30
2023-03-16T05:45:54.008Z,95.40
2023-03-16T05:47:59.626Z,95.30
2023-03-16T05:50:05.379Z,95.10
2023-03-16T05:52:15.136Z,95.10
2023-03-16T05:54:20.928Z,95.20
2023-03-16T05:56:31.057Z,95.30
2023-03-16T05:58:37.812Z,95.30
2023-03-16T06:00:46.762Z,95.50
2023-03-16T06:03:04.954Z,95.30
2023-03-16T06:05:13.862Z,95.20
2023-03-16T06:07:21.316Z,95.20
2023-03-16T06:09:28.311Z,95.10
2023-03-16T06:11:35.955Z,95.10
2023-03-16T06:13:41.747Z,95.20
2023-03-16T06:15:46.826Z,95.30
2023-03-16T06:17:52.736Z,95.10
2023-03-16T06:19:58.160Z,95.30
2023-03-16T06:22:03.138Z,95.20
2023-03-16T06:24:10.396Z,95.20
2023-03-16T06:26:15.309Z,95.00
2023-03-16T06:28:26.324Z,95.20
2023-03-16T06:30:32.157Z,95.30
2023-03-16T06:32:39.040Z,95.20
2023-03-16T06:34:44.443Z,95.30
2023-03-16T06:36:50.339Z,95.20
2023-03-16T06:38:55.356Z,95.20
2023-03-16T06:41:13.085Z,95.10
2023-03-16T06:43:18.072Z,95.20
2023-03-16T06:45:26.213Z,95.20
2023-03-16T06:47:33.982Z,95.20
2023-03-16T06:49:39.223Z,95.10
2023-03-16T06:51:52.232Z,95.30
2023-03-16T06:53:58.636Z,95.20
2023-03-16T06:56:03.884Z,95.30
2023-03-16T06:58:11.950Z,95.20
2023-03-16T07:00:18.897Z,95.20
2023-03-16T07:02:26.469Z,95.30
2023-03-16T07:04:31.942Z,95.30
2023-03-16T07:06:36.965Z,95.30
2023-03-16T07:08:42.568Z,95.30
2023-03-16T07:10:48.579Z,95.30
2023-03-16T07:12:53.589Z,95.20
2023-03-16T07:14:58.500Z,95.20
2023-03-16T07:17:04.465Z,95.20
2023-03-16T07:19:12.074Z,95.30
2023-03-16T07:21:17.386Z,95.10
2023-03-16T07:23:24.412Z,95.10
2023-03-16T07:25:31.724Z,94.90
2023-03-16T07:27:38.837Z,94.90
2023-03-16T07:29:45.231Z,95.00
2023-03-16T07:31:50.583Z,94.90
2023-03-16T07:34:00.505Z,94.80
2023-03-16T07:36:22.496Z,94.80
2023-03-16T07:38:34.355Z,94.70
2023-03-16T07:40:40.339Z,94.90
2023-03-16T07:42:51.325Z,94.90
2023-03-16T07:45:13.611Z,94.80
2023-03-16T07:47:19.846Z,94.50
2023-03-16T07:49:24.802Z,94.40
2023-03-16T07:51:34.315Z,94.40
2023-03-16T07:53:40.049Z,94.30
2023-03-16T07:55:58.196Z,94.20
2023-03-16T07:58:05.014Z,94.10
2023-03-16T08:00:14.444Z,93.90
2023-03-16T08:02:23.666Z,94.20
2023-03-16T08:04:29.684Z,94.20
2023-03-16T08:06:40.516Z,94.10
2023-03-16T08:08:46.538Z,94.10
2023-03-16T08:11:00.035Z,94.20
2023-03-16T08:13:15.862Z,93.80
2023-03-16T08:15:23.128Z,93.60
2023-03-16T08:17:31.444Z,93.60
2023-03-16T08:19:38.836Z,92.80
2023-03-16T08:22:01.066Z,92.60
2023-03-16T08:24:13.328Z,91.80
2023-03-16T08:26:20.242Z,91.00
2023-03-16T08:28:27.728Z,90.50
2023-03-16T08:30:34.531Z,90.00
2023-03-16T08:33:11.509Z,88.30
2023-03-16T08:35:19.278Z,87.30
2023-03-16T08:37:28.592Z,87.40
2023-03-16T08:39:35.695Z,87.30
2023-03-16T08:41:46.208Z,84.90
2023-03-16T08:44:07.953Z,83.40
2023-03-16T08:46:13.436Z,82.50
2023-03-16T08:48:25.523Z,83.60
2023-03-16T08:50:31.277Z,83.30
2023-03-16T08:52:41.229Z,82.40
2023-03-16T08:55:01.475Z,79.70
2023-03-16T08:57:09.576Z,78.10
2023-03-16T08:59:28.726Z,82.00
2023-03-16T09:01:34.930Z,76.80
2023-03-16T09:03:40.740Z,79.10
2023-03-16T09:05:45.760Z,76.90
2023-03-16T09:07:54.101Z,74.90
2023-03-16T09:09:59.308Z,75.60
2023-03-16T09:12:06.196Z,75.80
2023-03-16T09:14:11.527Z,74.60
2023-03-16T09:16:19.300Z,73.30
2023-03-16T09:18:26.234Z,75.60
2023-03-16T09:20:33.368Z,72.40
2023-03-16T09:22:39.508Z,74.10
2023-03-16T09:24:46.954Z,76.00
2023-03-16T09:26:52.165Z,73.70
2023-03-16T09:28:57.415Z,73.10
2023-03-16T09:31:03.124Z,75.80
2023-03-16T09:33:08.798Z,68.90
2023-03-16T09:35:13.674Z,72.20
2023-03-16T09:37:18.875Z,68.90
2023-03-16T09:39:23.817Z,68.90
2023-03-16T09:41:44.864Z,71.00
2023-03-16T09:44:09.217Z,70.20
2023-03-16T09:46:22.792Z,67.90
2023-03-16T09:48:30.916Z,69.90
2023-03-16T09:50:48.714Z,69.60
2023-03-16T09:53:00.133Z,64.30
2023-03-16T09:55:10.732Z,66.20
2023-03-16T09:57:31.308Z,63.70
2023-03-16T09:59:36.192Z,65.10
2023-03-16T10:01:53.789Z,64.40
2023-03-16T10:04:14.406Z,63.80
2023-03-16T10:06:19.500Z,59.90
2023-03-16T10:08:27.837Z,65.10
2023-03-16T10:11:02.674Z,64.10
2023-03-16T10:13:21.414Z,63.30
2023-03-16T10:15:29.887Z,64.90
2023-03-16T10:17:42.045Z,64.90
2023-03-16T10:19:52.644Z,65.30
2023-03-16T10:22:00.580Z,66.00
2023-03-16T10:24:07.544Z,66.20
2023-03-16T10:26:20.425Z,65.40
2023-03-16T10:28:32.236Z,64.00
2023-03-16T10:30:41.836Z,65.60
2023-03-16T10:32:49.564Z,62.80
2023-03-16T10:35:02.405Z,64.10
2023-03-16T10:37:09.532Z,64.70
2023-03-16T10:39:17.584Z,61.20
2023-03-16T10:41:30.381Z,62.30
2023-03-16T10:43:38.152Z,64.20
2023-03-16T10:45:46.493Z,63.50
2023-03-16T10:47:51.439Z,61.60
2023-03-16T10:49:56.518Z,62.00
2023-03-16T10:52:09.173Z,59.20
2023-03-16T10:54:19.966Z,58.70
2023-03-16T10:56:28.152Z,60.40
2023-03-16T10:58:42.060Z,60.00
2023-03-16T11:00:50.166Z,58.90
2023-03-16T11:02:57.309Z,61.40
2023-03-16T11:05:02.697Z,58.90
2023-03-16T11:07:14.980Z,57.10
2023-03-16T11:09:27.917Z,58.20
2023-03-16T11:11:34.694Z,57.80
2023-03-16T11:13:48.419Z,58.90
2023-03-16T11:16:00.564Z,58.00
2023-03-16T11:18:06.233Z,56.40
2023-03-16T11:20:20.323Z,57.10
2023-03-16T11:22:27.862Z,57.70
2023-03-16T11:24:47.767Z,58.80
2023-03-16T11:26:58.109Z,56.70
2023-03-16T11:29:17.872Z,57.30
2023-03-16T11:31:32.812Z,56.80
2023-03-16T11:33:38.065Z,57.30
2023-03-16T11:35:59.322Z,57.60
2023-03-16T11:38:16.334Z,56.80
2023-03-16T11:40:38.803Z,56.30
2023-03-16T11:42:58.261Z,55.90
2023-03-16T11:45:21.608Z,55.90
2023-03-16T11:47:47.513Z,53.40
2023-03-16T11:50:05.506Z,55.50
2023-03-16T11:52:20.783Z,54.50
2023-03-16T11:54:50.888Z,55.40
2023-03-16T11:57:01.867Z,55.10
2023-03-16T11:59:51.849Z,56.30
2023-03-16T12:02:31.996Z,53.90
2023-03-16T12:05:08.794Z,55.70
2023-03-16T12:07:30.806Z,55.80
2023-03-16T12:10:06.594Z,55.60
2023-03-16T12:12:31.085Z,55.00
2023-03-16T12:14:44.229Z,51.60
2023-03-16T12:16:57.335Z,51.60
2023-03-16T12:19:06.726Z,52.70
2023-03-16T12:21:18.466Z,54.10
2023-03-16T12:23:29.071Z,56.00
2023-03-16T12:25:39.562Z,56.20
2023-03-16T12:27:45.614Z,59.60
2023-03-16T12:30:05.025Z,57.80
2023-03-16T12:32:19.122Z,57.40
2023-03-16T12:34:35.955Z,57.20
2023-03-16T12:37:10.991Z,59.30
2023-03-16T12:39:26.114Z,59.20
2023-03-16T12:41:42.510Z,58.70
2023-03-16T12:44:04.625Z,59.00
2023-03-16T12:46:15.652Z,56.30
2023-03-16T12:48:30.267Z,58.70
2023-03-16T12:50:37.903Z,57.90
2023-03-16T12:52:44.921Z,53.60
2023-03-16T12:54:54.843Z,56.70
2023-03-16T12:57:05.643Z,58.70
2023-03-16T12:59:11.677Z,56.00
2023-03-16T13:01:20.834Z,55.10
2023-03-16T13:03:28.924Z,54.30
2023-03-16T13:05:39.231Z,52.70
2023-03-16T13:07:51.584Z,50.80
2023-03-16T13:10:01.863Z,53.90
2023-03-16T13:12:07.535Z,56.30
2023-03-16T13:14:18.589Z,53.60
2023-03-16T13:16:30.172Z,54.50
2023-03-16T13:18:45.443Z,53.90
2023-03-16T13:20:59.747Z,52.40
2023-03-16T13:23:24.444Z,53.30
2023-03-16T13:25:43.455Z,52.30
2023-03-16T13:27:51.328Z,54.10
2023-03-16T13:30:00.337Z,53.60
2023-03-16T13:32:11.553Z,55.10
2023-03-16T13:34:23.594Z,54.50
2023-03-16T13:36:33.523Z,53.20
2023-03-16T13:38:39.200Z,53.90
2023-03-16T13:40:49.341Z,55.40
2023-03-16T13:42:56.292Z,53.90
2023-03-16T13:45:07.786Z,56.50
2023-03-16T13:47:19.944Z,54.10
2023-03-16T13:49:25.758Z,54.50
2023-03-16T13:51:37.409Z,55.70
2023-03-16T13:53:44.598Z,56.40
2023-03-16T13:55:50.706Z,55.60
2023-03-16T13:57:56.141Z,55.30
2023-03-16T14:00:20.449Z,56.20
2023-03-16T14:02:25.405Z,54.60
2023-03-16T14:04:34.656Z,55.30
2023-03-16T14:06:43.207Z,55.70
2023-03-16T14:08:52.481Z,55.50
2023-03-16T14:11:01.333Z,57.10
2023-03-16T14:13:12.499Z,56.20
2023-03-16T14:15:19.138Z,55.50
2023-03-16T14:17:26.124Z,55.50
2023-03-16T14:19:36.072Z,55.10
2023-03-16T14:21:48.330Z,54.90
2023-03-16T14:23:57.791Z,54.50
2023-03-16T14:26:03.246Z,53.90
2023-03-16T14:28:10.599Z,55.30
2023-03-16T14:30:24.851Z,54.50
2023-03-16T14:32:34.412Z,55.10
2023-03-16T14:34:41.623Z,54.60
2023-03-16T14:36:49.708Z,52.60
2023-03-16T14:38:55.014Z,52.40
2023-03-16T14:41:05.758Z,53.10
2023-03-16T14:43:12.770Z,51.40
2023-03-16T14:45:20.385Z,50.20
2023-03-16T14:47:30.777Z,51.40
2023-03-16T14:49:40.011Z,51.30
2023-03-16T14:51:52.704Z,52.80
2023-03-16T14:53:57.701Z,50.90
2023-03-16T14:56:02.868Z,50.10
2023-03-16T14:58:07.912Z,50.20
2023-03-16T15:00:17.940Z,44.90
2023-03-16T15:02:30.317Z,47.70
2023-03-16T15:04:38.712Z,46.00
2023-03-16T15:06:44.571Z,44.60
2023-03-16T15:08:52.260Z,46.40
2023-03-16T15:11:01.098Z,46.70
2023-03-16T15:13:13.357Z,46.70
2023-03-16T15:15:22.608Z,47.70
2023-03-16T15:17:27.737Z,49.40
2023-03-16T15:19:32.606Z,51.70
2023-03-16T15:21:37.634Z,52.70
2023-03-16T15:23:43.433Z,52.00
2023-03-16T15:25:53.813Z,51.90
2023-03-16T15:27:59.253Z,53.50
2023-03-16T15:30:04.862Z,53.60
2023-03-16T15:32:15.601Z,53.70
2023-03-16T15:34:20.567Z,52.50
2023-03-16T15:36:26.162Z,53.10
2023-03-16T15:38:34.713Z,54.40
2023-03-16T15:40:41.811Z,54.00
2023-03-16T15:42:49.431Z,55.20
2023-03-16T15:44:54.337Z,55.10
2023-03-16T15:47:00.703Z,53.80
2023-03-16T15:49:05.652Z,53.40
2023-03-16T15:51:24.069Z,53.40
2023-03-16T15:53:35.728Z,51.90
2023-03-16T15:55:44.594Z,50.70
2023-03-16T15:57:59.263Z,53.40
2023-03-16T16:00:04.886Z,53.30
2023-03-16T16:02:30.588Z,53.00
2023-03-16T16:04:35.552Z,53.10
2023-03-16T16:06:41.299Z,54.10
2023-03-16T16:08:47.590Z,53.10
2023-03-16T16:10:53.635Z,54.10
2023-03-16T16:13:02.204Z,52.70
2023-03-16T16:15:20.046Z,52.00
2023-03-16T16:17:43.749Z,52.70
2023-03-16T16:19:51.059Z,52.20
2023-03-16T16:21:56.297Z,52.60
2023-03-16T16:24:03.242Z,53.70
2023-03-16T16:26:23.250Z,52.80
2023-03-16T16:28:35.709Z,52.90
2023-03-16T16:30:40.746Z,49.90
2023-03-16T16:32:46.451Z,50.80
2023-03-16T16:35:03.332Z,50.80
2023-03-16T16:37:12.676Z,51.60
2023-03-16T16:39:18.144Z,52.10
2023-03-16T16:41:29.969Z,52.40
2023-03-16T16:43:41.644Z,52.20
2023-03-16T16:45:47.424Z,55.20
2023-03-16T16:47:56.034Z,53.40
2023-03-16T16:50:02.076Z,54.70
2023-03-16T16:52:08.691Z,55.00
2023-03-16T16:54:19.365Z,55.30
2023-03-16T16:56:31.211Z,54.90
2023-03-16T16:58:40.678Z,56.90
2023-03-16T17:00:45.780Z,56.20
2023-03-16T17:02:54.226Z,56.30
2023-03-16T17:05:00.052Z,57.90
2023-03-16T17:07:04.993Z,58.80
2023-03-16T17:09:10.157Z,58.00
2023-03-16T17:11:23.585Z,58.40
2023-03-16T17:13:32.149Z,59.70
2023-03-16T17:15:40.063Z,60.10
2023-03-16T17:17:45.867Z,61.70
2023-03-16T17:19:53.819Z,61.00
2023-03-16T17:22:01.473Z,61.60
2023-03-16T17:24:06.619Z,62.00
2023-03-16T17:26:19.184Z,62.10
2023-03-16T17:28:26.265Z,62.40
2023-03-16T17:30:34.373Z,63.20
2023-03-16T17:32:41.976Z,63.90
2023-03-16T17:34:46.963Z,63.30
2023-03-16T17:36:52.443Z,64.20
2023-03-16T17:38:58.067Z,63.90
2023-03-16T17:41:03.663Z,65.30
2023-03-16T17:43:16.162Z,65.00
2023-03-16T17:45:24.000Z,65.00
2023-03-16T17:47:36.325Z,65.40
2023-03-16T17:49:49.081Z,64.90
2023-03-16T17:51:54.563Z,65.70
2023-03-16T17:53:59.613Z,65.80
2023-03-16T17:56:05.630Z,65.70
2023-03-16T17:58:28.937Z,65.80
2023-03-16T18:00:37.296Z,66.20
2023-03-16T18:02:47.191Z,66.50
2023-03-16T18:04:54.679Z,66.80
2023-03-16T18:06:59.553Z,67.40
2023-03-16T18:09:04.721Z,66.40
2023-03-16T18:11:18.330Z,66.40
2023-03-16T18:13:26.945Z,66.20
2023-03-16T18:15:36.545Z,66.90
2023-03-16T18:17:41.490Z,66.60
2023-03-16T18:19:48.871Z,66.60
2023-03-16T18:21:57.396Z,66.20
2023-03-16T18:24:02.619Z,67.10
2023-03-16T18:26:09.407Z,67.10
2023-03-16T18:28:16.524Z,67.30
2023-03-16T18:30:21.796Z,66.30
2023-03-16T18:32:32.348Z,67.20
2023-03-16T18:34:37.640Z,67.50
2023-03-16T18:36:45.112Z,67.10
2023-03-16T18:38:54.680Z,66.90
2023-03-16T18:41:02.449Z,67.20
2023-03-16T18:43:08.871Z,67.00
2023-03-16T18:45:15.324Z,68.10
2023-03-16T18:47:22.497Z,67.40
2023-03-16T18:49:34.376Z,67.10
2023-03-16T18:51:40.261Z,66.90
2023-03-16T18:53:45.400Z,67.70
2023-03-16T18:55:55.092Z,66.50
2023-03-16T18:58:01.507Z,65.70
2023-03-16T19:00:08.596Z,66.60
2023-03-16T19:02:37.261Z,66.90
2023-03-16T19:04:42.782Z,65.70
2023-03-16T19:06:48.386Z,65.30
2023-03-16T19:08:53.616Z,66.30
2023-03-16T19:11:05.060Z,65.40
2023-03-16T19:13:18.627Z,65.70
2023-03-16T19:15:26.709Z,66.30
2023-03-16T19:17:31.698Z,66.70
2023-03-16T19:19:36.615Z,66.50
2023-03-16T19:21:42.726Z,66.30
2023-03-16T19:23:50.788Z,66.10
2023-03-16T19:25:57.960Z,66.30
2023-03-16T19:28:07.305Z,65.80
2023-03-16T19:30:25.835Z,66.70
2023-03-16T19:32:30.763Z,65.20
2023-03-16T19:34:35.699Z,65.40
2023-03-16T19:36:41.275Z,65.70
2023-03-16T19:38:50.279Z,66.10
2023-03-16T19:40:58.720Z,65.70
2023-03-16T19:43:07.094Z,65.00
2023-03-16T19:45:25.428Z,65.80
2023-03-16T19:47:34.894Z,65.80
2023-03-16T19:49:39.773Z,65.40
2023-03-16T19:51:44.658Z,65.30
2023-03-16T19:53:50.067Z,65.90
2023-03-16T19:55:56.867Z,65.70
2023-03-16T19:58:07.619Z,66.20
2023-03-16T20:00:23.313Z,66.40
2023-03-16T20:02:32.414Z,67.00
2023-03-16T20:04:38.162Z,66.50
2023-03-16T20:06:43.434Z,65.70
2023-03-16T20:08:49.273Z,65.60
2023-03-16T20:10:57.148Z,66.00
2023-03-16T20:13:07.627Z,66.60
2023-03-16T20:15:17.285Z,67.00
2023-03-16T20:17:26.126Z,66.70
2023-03-16T20:19:31.246Z,66.70
2023-03-16T20:21:36.174Z,67.00
2023-03-16T20:23:41.270Z,68.00
2023-03-16T20:25:46.626Z,67.90
2023-03-16T20:27:58.070Z,68.70
2023-03-16T20:30:05.929Z,68.00
2023-03-16T20:32:21.135Z,68.50
2023-03-16T20:34:29.387Z,68.50
2023-03-16T20:36:34.447Z,68.60
2023-03-16T20:38:39.321Z,68.40
2023-03-16T20:40:45.761Z,68.90
2023-03-16T20:42:52.649Z,68.60
2023-03-16T20:44:57.630Z,68.00
2023-03-16T20:47:05.113Z,68.70
2023-03-16T20:49:34.074Z,69.10
2023-03-16T20:51:38.931Z,69.30
2023-03-16T20:53:45.123Z,69.80
2023-03-16T20:55:50.340Z,70.10
2023-03-16T20:57:57.730Z,70.70
2023-03-16T21:00:02.740Z,70.50
2023-03-16T21:02:27.160Z,69.80
2023-03-16T21:04:32.482Z,71.30
2023-03-16T21:06:38.033Z,70.90
2023-03-16T21:08:42.911Z,70.30
2023-03-16T21:10:50.364Z,70.10
2023-03-16T21:12:58.412Z,69.60
2023-03-16T21:15:05.002Z,70.00
2023-03-16T21:17:26.503Z,70.10
2023-03-16T21:19:31.698Z,70.90
2023-03-16T21:21:36.580Z,70.00
2023-03-16T21:23:41.910Z,69.60
2023-03-16T21:25:51.004Z,69.90
2023-03-16T21:27:58.399Z,70.40
2023-03-16T21:30:19.597Z,70.00
2023-03-16T21:32:30.937Z,70.10
2023-03-16T21:34:38.913Z,69.80
2023-03-16T21:36:44.578Z,69.80
2023-03-16T21:38:53.250Z,69.60
2023-03-16T21:40:58.481Z,69.50
2023-03-16T21:43:03.376Z,69.60
2023-03-16T21:45:10.730Z,69.80
2023-03-16T21:47:29.226Z,70.30
2023-03-16T21:49:34.097Z,70.30
2023-03-16T21:51:40.439Z,69.60
2023-03-16T21:53:46.524Z,69.50
2023-03-16T21:55:52.336Z,69.60
2023-03-16T21:57:58.631Z,69.30
2023-03-16T22:00:05.102Z,69.40
2023-03-16T22:02:22.681Z,70.10
2023-03-16T22:04:30.724Z,69.70
2023-03-16T22:06:36.028Z,69.70
2023-03-16T22:08:41.173Z,69.50
2023-03-16T22:10:47.121Z,69.10
2023-03-16T22:12:52.752Z,68.90
2023-03-16T22:14:57.871Z,69.30
2023-03-16T22:17:02.988Z,68.30
2023-03-16T22:19:08.589Z,68.20
2023-03-16T22:21:30.316Z,68.80
2023-03-16T22:23:37.728Z,69.00
2023-03-16T22:25:42.837Z,68.90
2023-03-16T22:27:48.096Z,68.40
2023-03-16T22:29:53.479Z,69.40
2023-03-16T22:32:03.052Z,69.60
2023-03-16T22:34:09.335Z,69.50
2023-03-16T22:36:22.319Z,69.70
2023-03-16T22:38:27.242Z,69.80
2023-03-16T22:40:37.428Z,69.20
2023-03-16T22:42:42.505Z,68.80
2023-03-16T22:44:48.091Z,68.80
2023-03-16T22:46:53.045Z,68.50
2023-03-16T22:48:59.348Z,68.50
2023-03-16T22:51:07.613Z,68.90
2023-03-16T22:53:22.195Z,69.30
2023-03-16T22:55:33.236Z,68.70
2023-03-16T22:57:38.170Z,68.10
2023-03-16T22:59:43.184Z,68.70
2023-03-16T23:01:50.440Z,68.70
2023-03-16T23:03:55.615Z,68.70
2023-03-16T23:06:01.837Z,69.00
2023-03-16T23:08:21.143Z,69.50
2023-03-16T23:10:29.668Z,69.30
2023-03-16T23:12:35.329Z,69.20
2023-03-16T23:14:41.357Z,69.10
2023-03-16T23:16:47.623Z,69.40
2023-03-16T23:18:54.055Z,69.70
2023-03-16T23:20:59.299Z,69.90
2023-03-16T23:23:04.183Z,69.80
2023-03-16T23:25:12.532Z,69.90
2023-03-16T23:27:22.337Z,69.90
2023-03-16T23:29:28.897Z,69.70
2023-03-16T23:31:34.749Z,69.50
2023-03-16T23:33:39.718Z,70.00
2023-03-16T23:35:47.147Z,70.00
2023-03-16T23:37:53.321Z,70.20
2023-03-16T23:39:58.851Z,70.00
2023-03-16T23:42:07.530Z,70.40
2023-03-16T23:44:18.081Z,70.10
2023-03-16T23:46:26.069Z,70.80
2023-03-16T23:48:31.457Z,70.70
2023-03-16T23:50:38.872Z,70.50
2023-03-16T23:52:44.010Z,70.00
2023-03-16T23:54:50.132Z,69.80
2023-03-16T23:56:55.254Z,69.00
2023-03-16T23:59:02.724Z,69.90
